sensor_id;sensor_type;location;lat;lon;timestamp;P1;durP1;ratioP1;P2;durP2;ratioP2
25922;SDS011;13725;51.170;4.442;2022-11-20T00:01:17;34.53;;;17.80;;
25922;SDS011;13725;51.170;4.442;2022-11-20T00:03:48;34.30;;;17.17;;
25922;SDS011;13725;51.170;4.442;2022-11-20T00:06:16;33.72;;;16.67;;
25922;SDS011;13725;51.170;4.442;2022-11-20T00:08:43;32.65;;;17.13;;
25922;SDS011;13725;51.170;4.442;2022-11-20T00:11:11;37.72;;;16.88;;
25922;SDS011;13725;51.170;4.442;2022-11-20T00:13:42;35.10;;;16.90;;
25922;SDS011;13725;51.170;4.442;2022-11-20T00:16:09;36.75;;;17.75;;
25922;SDS011;13725;51.170;4.442;2022-11-20T00:18:36;33.53;;;16.05;;
25922;SDS011;13725;51.170;4.442;2022-11-20T00:21:03;33.90;;;16.02;;
25922;SDS011;13725;51.170;4.442;2022-11-20T00:23:30;32.08;;;15.93;;
25922;SDS011;13725;51.170;4.442;2022-11-20T00:25:56;35.40;;;17.10;;
25922;SDS011;13725;51.170;4.442;2022-11-20T00:28:23;31.80;;;15.77;;
25922;SDS011;13725;51.170;4.442;2022-11-20T00:30:48;33.92;;;16.65;;
25922;SDS011;13725;51.170;4.442;2022-11-20T00:33:14;34.33;;;17.85;;
25922;SDS011;13725;51.170;4.442;2022-11-20T00:35:40;37.42;;;17.90;;
25922;SDS011;13725;51.170;4.442;2022-11-20T00:38:06;34.50;;;16.35;;
25922;SDS011;13725;51.170;4.442;2022-11-20T00:40:31;32.90;;;16.75;;
25922;SDS011;13725;51.170;4.442;2022-11-20T00:42:57;34.22;;;16.75;;
25922;SDS011;13725;51.170;4.442;2022-11-20T00:45:23;32.08;;;15.95;;
25922;SDS011;13725;51.170;4.442;2022-11-20T00:47:48;32.35;;;16.40;;
25922;SDS011;13725;51.170;4.442;2022-11-20T00:50:14;33.55;;;17.63;;
25922;SDS011;13725;51.170;4.442;2022-11-20T00:52:41;36.42;;;17.15;;
25922;SDS011;13725;51.170;4.442;2022-11-20T00:55:06;39.92;;;17.10;;
25922;SDS011;13725;51.170;4.442;2022-11-20T00:57:32;34.65;;;17.02;;
25922;SDS011;13725;51.170;4.442;2022-11-20T00:59:59;36.30;;;16.27;;
25922;SDS011;13725;51.170;4.442;2022-11-20T01:02:25;33.33;;;16.13;;
25922;SDS011;13725;51.170;4.442;2022-11-20T01:04:50;36.10;;;17.25;;
25922;SDS011;13725;51.170;4.442;2022-11-20T01:07:16;34.58;;;16.65;;
25922;SDS011;13725;51.170;4.442;2022-11-20T01:09:42;33.20;;;17.02;;
25922;SDS011;13725;51.170;4.442;2022-11-20T01:12:07;31.50;;;16.95;;
25922;SDS011;13725;51.170;4.442;2022-11-20T01:14:33;34.92;;;17.48;;
25922;SDS011;13725;51.170;4.442;2022-11-20T01:16:59;35.75;;;17.00;;
25922;SDS011;13725;51.170;4.442;2022-11-20T01:19:24;33.80;;;16.52;;
25922;SDS011;13725;51.170;4.442;2022-11-20T01:21:51;30.55;;;15.63;;
25922;SDS011;13725;51.170;4.442;2022-11-20T01:24:19;36.22;;;16.50;;
25922;SDS011;13725;51.170;4.442;2022-11-20T01:26:46;36.45;;;17.67;;
25922;SDS011;13725;51.170;4.442;2022-11-20T01:29:23;31.73;;;16.33;;
25922;SDS011;13725;51.170;4.442;2022-11-20T01:31:50;33.35;;;16.02;;
25922;SDS011;13725;51.170;4.442;2022-11-20T01:34:18;33.85;;;16.33;;
25922;SDS011;13725;51.170;4.442;2022-11-20T01:36:45;33.33;;;18.17;;
25922;SDS011;13725;51.170;4.442;2022-11-20T01:39:12;40.03;;;17.27;;
25922;SDS011;13725;51.170;4.442;2022-11-20T01:41:40;37.55;;;18.50;;
25922;SDS011;13725;51.170;4.442;2022-11-20T01:49:56;34.08;;;17.67;;
25922;SDS011;13725;51.170;4.442;2022-11-20T01:52:32;36.97;;;17.52;;
25922;SDS011;13725;51.170;4.442;2022-11-20T01:55:26;36.47;;;17.45;;
25922;SDS011;13725;51.170;4.442;2022-11-20T01:57:56;36.28;;;17.60;;
25922;SDS011;13725;51.170;4.442;2022-11-20T02:00:23;36.75;;;18.20;;
25922;SDS011;13725;51.170;4.442;2022-11-20T02:02:53;36.97;;;16.90;;
25922;SDS011;13725;51.170;4.442;2022-11-20T02:05:23;41.00;;;19.23;;
25922;SDS011;13725;51.170;4.442;2022-11-20T02:07:58;40.13;;;17.27;;
25922;SDS011;13725;51.170;4.442;2022-11-20T02:10:26;36.10;;;16.88;;
25922;SDS011;13725;51.170;4.442;2022-11-20T02:12:53;35.53;;;17.30;;
25922;SDS011;13725;51.170;4.442;2022-11-20T02:15:38;37.78;;;17.77;;
25922;SDS011;13725;51.170;4.442;2022-11-20T02:18:04;39.03;;;18.50;;
25922;SDS011;13725;51.170;4.442;2022-11-20T02:20:31;35.55;;;17.67;;
25922;SDS011;13725;51.170;4.442;2022-11-20T02:26:18;36.45;;;18.02;;
25922;SDS011;13725;51.170;4.442;2022-11-20T02:28:46;38.40;;;18.52;;
25922;SDS011;13725;51.170;4.442;2022-11-20T02:31:12;40.38;;;18.08;;
25922;SDS011;13725;51.170;4.442;2022-11-20T02:33:38;40.78;;;17.75;;
25922;SDS011;13725;51.170;4.442;2022-11-20T02:36:03;38.70;;;18.80;;
25922;SDS011;13725;51.170;4.442;2022-11-20T02:38:30;38.05;;;18.85;;
25922;SDS011;13725;51.170;4.442;2022-11-20T02:40:56;37.92;;;19.15;;
25922;SDS011;13725;51.170;4.442;2022-11-20T02:43:22;36.17;;;18.27;;
25922;SDS011;13725;51.170;4.442;2022-11-20T02:45:48;37.95;;;18.75;;
25922;SDS011;13725;51.170;4.442;2022-11-20T02:48:14;40.63;;;19.33;;
25922;SDS011;13725;51.170;4.442;2022-11-20T02:50:40;42.67;;;20.80;;
25922;SDS011;13725;51.170;4.442;2022-11-20T02:53:06;40.00;;;18.75;;
25922;SDS011;13725;51.170;4.442;2022-11-20T02:55:32;44.47;;;19.42;;
25922;SDS011;13725;51.170;4.442;2022-11-20T02:57:58;41.88;;;19.73;;
25922;SDS011;13725;51.170;4.442;2022-11-20T03:00:23;40.25;;;18.48;;
25922;SDS011;13725;51.170;4.442;2022-11-20T03:02:49;39.85;;;19.20;;
25922;SDS011;13725;51.170;4.442;2022-11-20T03:05:15;41.53;;;19.80;;
25922;SDS011;13725;51.170;4.442;2022-11-20T03:07:41;40.83;;;20.42;;
25922;SDS011;13725;51.170;4.442;2022-11-20T03:10:08;41.92;;;19.60;;
25922;SDS011;13725;51.170;4.442;2022-11-20T03:12:34;43.42;;;19.27;;
25922;SDS011;13725;51.170;4.442;2022-11-20T03:15:00;44.53;;;19.23;;
25922;SDS011;13725;51.170;4.442;2022-11-20T03:17:26;35.78;;;18.02;;
25922;SDS011;13725;51.170;4.442;2022-11-20T03:19:51;37.17;;;18.50;;
25922;SDS011;13725;51.170;4.442;2022-11-20T03:22:17;38.78;;;17.95;;
25922;SDS011;13725;51.170;4.442;2022-11-20T03:24:43;44.00;;;19.70;;
25922;SDS011;13725;51.170;4.442;2022-11-20T03:27:08;43.78;;;19.55;;
25922;SDS011;13725;51.170;4.442;2022-11-20T03:29:34;40.17;;;18.75;;
25922;SDS011;13725;51.170;4.442;2022-11-20T03:32:00;41.67;;;19.13;;
25922;SDS011;13725;51.170;4.442;2022-11-20T03:34:27;42.20;;;19.17;;
25922;SDS011;13725;51.170;4.442;2022-11-20T03:36:53;41.97;;;20.35;;
25922;SDS011;13725;51.170;4.442;2022-11-20T03:39:18;39.80;;;19.25;;
25922;SDS011;13725;51.170;4.442;2022-11-20T03:41:44;46.40;;;21.98;;
25922;SDS011;13725;51.170;4.442;2022-11-20T03:44:10;52.90;;;23.23;;
25922;SDS011;13725;51.170;4.442;2022-11-20T03:46:37;59.33;;;23.92;;
25922;SDS011;13725;51.170;4.442;2022-11-20T03:49:03;62.22;;;24.05;;
25922;SDS011;13725;51.170;4.442;2022-11-20T03:51:30;61.22;;;23.63;;
25922;SDS011;13725;51.170;4.442;2022-11-20T03:54:00;59.35;;;24.08;;
25922;SDS011;13725;51.170;4.442;2022-11-20T03:56:29;54.20;;;24.38;;
25922;SDS011;13725;51.170;4.442;2022-11-20T03:58:55;67.00;;;25.23;;
25922;SDS011;13725;51.170;4.442;2022-11-20T04:01:23;59.78;;;23.67;;
25922;SDS011;13725;51.170;4.442;2022-11-20T04:03:55;59.67;;;25.17;;
25922;SDS011;13725;51.170;4.442;2022-11-20T04:06:27;59.70;;;23.85;;
25922;SDS011;13725;51.170;4.442;2022-11-20T04:08:55;58.15;;;23.88;;
25922;SDS011;13725;51.170;4.442;2022-11-20T04:11:22;60.65;;;24.67;;
25922;SDS011;13725;51.170;4.442;2022-11-20T04:13:51;59.55;;;25.23;;
25922;SDS011;13725;51.170;4.442;2022-11-20T04:16:18;64.82;;;25.48;;
25922;SDS011;13725;51.170;4.442;2022-11-20T04:18:45;62.28;;;25.02;;
25922;SDS011;13725;51.170;4.442;2022-11-20T04:21:11;65.00;;;26.25;;
25922;SDS011;13725;51.170;4.442;2022-11-20T04:23:38;61.75;;;25.58;;
25922;SDS011;13725;51.170;4.442;2022-11-20T04:26:07;62.83;;;25.35;;
25922;SDS011;13725;51.170;4.442;2022-11-20T04:28:35;58.95;;;24.77;;
25922;SDS011;13725;51.170;4.442;2022-11-20T04:31:05;66.95;;;26.05;;
25922;SDS011;13725;51.170;4.442;2022-11-20T04:33:35;63.85;;;26.88;;
25922;SDS011;13725;51.170;4.442;2022-11-20T04:36:02;57.92;;;25.92;;
25922;SDS011;13725;51.170;4.442;2022-11-20T04:38:30;63.55;;;25.65;;
25922;SDS011;13725;51.170;4.442;2022-11-20T04:41:01;66.93;;;25.00;;
25922;SDS011;13725;51.170;4.442;2022-11-20T04:43:28;65.50;;;25.70;;
25922;SDS011;13725;51.170;4.442;2022-11-20T04:45:55;65.03;;;26.65;;
25922;SDS011;13725;51.170;4.442;2022-11-20T04:48:22;59.97;;;24.95;;
25922;SDS011;13725;51.170;4.442;2022-11-20T04:50:48;64.65;;;26.15;;
25922;SDS011;13725;51.170;4.442;2022-11-20T04:53:14;65.03;;;26.95;;
25922;SDS011;13725;51.170;4.442;2022-11-20T04:55:40;65.60;;;26.52;;
25922;SDS011;13725;51.170;4.442;2022-11-20T04:58:06;66.00;;;25.80;;
25922;SDS011;13725;51.170;4.442;2022-11-20T05:00:31;60.47;;;26.52;;
25922;SDS011;13725;51.170;4.442;2022-11-20T05:02:57;60.88;;;25.00;;
25922;SDS011;13725;51.170;4.442;2022-11-20T05:05:23;59.30;;;25.55;;
25922;SDS011;13725;51.170;4.442;2022-11-20T05:07:48;61.70;;;25.05;;
25922;SDS011;13725;51.170;4.442;2022-11-20T05:10:14;66.57;;;26.25;;
25922;SDS011;13725;51.170;4.442;2022-11-20T05:12:40;62.08;;;24.10;;
25922;SDS011;13725;51.170;4.442;2022-11-20T05:15:06;62.47;;;25.27;;
25922;SDS011;13725;51.170;4.442;2022-11-20T05:17:32;63.47;;;26.08;;
25922;SDS011;13725;51.170;4.442;2022-11-20T05:19:58;70.82;;;26.33;;
25922;SDS011;13725;51.170;4.442;2022-11-20T05:22:24;63.70;;;26.20;;
25922;SDS011;13725;51.170;4.442;2022-11-20T05:24:49;66.13;;;25.90;;
25922;SDS011;13725;51.170;4.442;2022-11-20T05:27:15;68.13;;;26.63;;
25922;SDS011;13725;51.170;4.442;2022-11-20T05:29:40;61.85;;;25.45;;
25922;SDS011;13725;51.170;4.442;2022-11-20T05:32:06;59.95;;;25.92;;
25922;SDS011;13725;51.170;4.442;2022-11-20T05:34:34;68.63;;;26.52;;
25922;SDS011;13725;51.170;4.442;2022-11-20T05:37:01;64.30;;;26.50;;
25922;SDS011;13725;51.170;4.442;2022-11-20T05:39:27;72.78;;;25.48;;
25922;SDS011;13725;51.170;4.442;2022-11-20T05:41:53;65.43;;;24.83;;
25922;SDS011;13725;51.170;4.442;2022-11-20T05:44:37;61.30;;;25.33;;
25922;SDS011;13725;51.170;4.442;2022-11-20T05:47:03;66.22;;;27.50;;
25922;SDS011;13725;51.170;4.442;2022-11-20T05:49:30;69.82;;;26.38;;
25922;SDS011;13725;51.170;4.442;2022-11-20T05:51:56;65.65;;;26.48;;
25922;SDS011;13725;51.170;4.442;2022-11-20T05:54:23;65.20;;;25.10;;
25922;SDS011;13725;51.170;4.442;2022-11-20T05:56:48;68.57;;;26.45;;
25922;SDS011;13725;51.170;4.442;2022-11-20T05:59:14;63.65;;;26.20;;
25922;SDS011;13725;51.170;4.442;2022-11-20T06:01:40;64.63;;;25.63;;
25922;SDS011;13725;51.170;4.442;2022-11-20T06:04:06;66.18;;;25.15;;
25922;SDS011;13725;51.170;4.442;2022-11-20T06:06:31;62.72;;;25.52;;
25922;SDS011;13725;51.170;4.442;2022-11-20T06:08:57;67.63;;;26.30;;
25922;SDS011;13725;51.170;4.442;2022-11-20T06:11:24;69.05;;;25.65;;
25922;SDS011;13725;51.170;4.442;2022-11-20T06:13:50;61.88;;;25.13;;
25922;SDS011;13725;51.170;4.442;2022-11-20T06:16:16;67.47;;;24.90;;
25922;SDS011;13725;51.170;4.442;2022-11-20T06:18:45;67.72;;;26.95;;
25922;SDS011;13725;51.170;4.442;2022-11-20T06:21:14;63.08;;;25.17;;
25922;SDS011;13725;51.170;4.442;2022-11-20T06:23:41;67.65;;;26.60;;
25922;SDS011;13725;51.170;4.442;2022-11-20T06:26:11;65.30;;;26.75;;
25922;SDS011;13725;51.170;4.442;2022-11-20T06:28:44;62.75;;;24.98;;
25922;SDS011;13725;51.170;4.442;2022-11-20T06:31:11;64.35;;;25.67;;
25922;SDS011;13725;51.170;4.442;2022-11-20T06:33:39;65.05;;;25.73;;
25922;SDS011;13725;51.170;4.442;2022-11-20T06:36:05;68.45;;;26.70;;
25922;SDS011;13725;51.170;4.442;2022-11-20T06:38:31;65.35;;;25.40;;
25922;SDS011;13725;51.170;4.442;2022-11-20T06:40:57;69.85;;;27.00;;
25922;SDS011;13725;51.170;4.442;2022-11-20T06:43:23;64.70;;;26.35;;
25922;SDS011;13725;51.170;4.442;2022-11-20T06:45:55;69.82;;;26.75;;
25922;SDS011;13725;51.170;4.442;2022-11-20T06:48:23;62.88;;;24.63;;
25922;SDS011;13725;51.170;4.442;2022-11-20T06:50:50;66.60;;;25.52;;
25922;SDS011;13725;51.170;4.442;2022-11-20T06:53:16;62.92;;;24.35;;
25922;SDS011;13725;51.170;4.442;2022-11-20T06:55:44;66.50;;;26.30;;
25922;SDS011;13725;51.170;4.442;2022-11-20T06:58:11;66.95;;;25.65;;
25922;SDS011;13725;51.170;4.442;2022-11-20T07:00:37;65.55;;;25.25;;
25922;SDS011;13725;51.170;4.442;2022-11-20T07:03:06;63.30;;;25.20;;
25922;SDS011;13725;51.170;4.442;2022-11-20T07:05:33;66.32;;;27.00;;
25922;SDS011;13725;51.170;4.442;2022-11-20T07:08:00;67.07;;;25.98;;
25922;SDS011;13725;51.170;4.442;2022-11-20T07:10:27;63.97;;;25.15;;
25922;SDS011;13725;51.170;4.442;2022-11-20T07:12:53;68.60;;;24.17;;
25922;SDS011;13725;51.170;4.442;2022-11-20T07:15:20;67.45;;;27.67;;
25922;SDS011;13725;51.170;4.442;2022-11-20T07:17:47;66.03;;;26.70;;
25922;SDS011;13725;51.170;4.442;2022-11-20T07:20:13;66.22;;;26.73;;
25922;SDS011;13725;51.170;4.442;2022-11-20T07:22:39;67.05;;;26.58;;
25922;SDS011;13725;51.170;4.442;2022-11-20T07:25:05;67.30;;;25.42;;
25922;SDS011;13725;51.170;4.442;2022-11-20T07:27:32;60.92;;;24.30;;
25922;SDS011;13725;51.170;4.442;2022-11-20T07:29:58;63.10;;;25.88;;
25922;SDS011;13725;51.170;4.442;2022-11-20T07:32:24;60.25;;;24.90;;
25922;SDS011;13725;51.170;4.442;2022-11-20T07:34:50;64.07;;;24.52;;
25922;SDS011;13725;51.170;4.442;2022-11-20T07:37:15;60.58;;;23.80;;
25922;SDS011;13725;51.170;4.442;2022-11-20T07:39:41;60.70;;;25.30;;
25922;SDS011;13725;51.170;4.442;2022-11-20T07:42:07;62.33;;;24.40;;
25922;SDS011;13725;51.170;4.442;2022-11-20T07:44:36;64.20;;;25.42;;
25922;SDS011;13725;51.170;4.442;2022-11-20T07:47:02;60.90;;;25.00;;
25922;SDS011;13725;51.170;4.442;2022-11-20T07:49:27;60.60;;;24.95;;
25922;SDS011;13725;51.170;4.442;2022-11-20T07:51:53;62.75;;;24.67;;
25922;SDS011;13725;51.170;4.442;2022-11-20T07:54:19;62.75;;;25.42;;
25922;SDS011;13725;51.170;4.442;2022-11-20T07:56:46;59.63;;;25.58;;
25922;SDS011;13725;51.170;4.442;2022-11-20T07:59:12;64.55;;;26.17;;
25922;SDS011;13725;51.170;4.442;2022-11-20T08:01:39;64.50;;;23.95;;
25922;SDS011;13725;51.170;4.442;2022-11-20T08:04:05;68.45;;;25.60;;
25922;SDS011;13725;51.170;4.442;2022-11-20T08:06:31;58.22;;;23.90;;
25922;SDS011;13725;51.170;4.442;2022-11-20T08:08:57;66.45;;;25.42;;
25922;SDS011;13725;51.170;4.442;2022-11-20T08:11:23;57.40;;;24.23;;
25922;SDS011;13725;51.170;4.442;2022-11-20T08:14:07;53.70;;;22.83;;
25922;SDS011;13725;51.170;4.442;2022-11-20T08:16:39;54.00;;;23.20;;
25922;SDS011;13725;51.170;4.442;2022-11-20T08:19:06;57.15;;;23.33;;
25922;SDS011;13725;51.170;4.442;2022-11-20T08:21:32;60.35;;;23.98;;
25922;SDS011;13725;51.170;4.442;2022-11-20T08:23:58;56.10;;;23.85;;
25922;SDS011;13725;51.170;4.442;2022-11-20T08:26:24;61.67;;;25.38;;
25922;SDS011;13725;51.170;4.442;2022-11-20T08:28:54;57.33;;;25.08;;
25922;SDS011;13725;51.170;4.442;2022-11-20T08:31:21;61.40;;;23.88;;
25922;SDS011;13725;51.170;4.442;2022-11-20T08:33:47;60.95;;;24.55;;
25922;SDS011;13725;51.170;4.442;2022-11-20T08:36:13;57.45;;;23.83;;
25922;SDS011;13725;51.170;4.442;2022-11-20T08:38:39;55.05;;;23.08;;
25922;SDS011;13725;51.170;4.442;2022-11-20T08:41:05;60.15;;;24.02;;
25922;SDS011;13725;51.170;4.442;2022-11-20T08:43:51;60.97;;;24.27;;
25922;SDS011;13725;51.170;4.442;2022-11-20T08:46:23;57.05;;;22.70;;
25922;SDS011;13725;51.170;4.442;2022-11-20T08:48:53;63.70;;;26.95;;
25922;SDS011;13725;51.170;4.442;2022-11-20T08:51:19;55.42;;;22.90;;
25922;SDS011;13725;51.170;4.442;2022-11-20T08:53:45;61.55;;;24.48;;
25922;SDS011;13725;51.170;4.442;2022-11-20T08:56:13;57.15;;;23.05;;
25922;SDS011;13725;51.170;4.442;2022-11-20T08:58:39;58.78;;;23.35;;
25922;SDS011;13725;51.170;4.442;2022-11-20T09:01:05;62.33;;;25.27;;
25922;SDS011;13725;51.170;4.442;2022-11-20T09:03:31;67.05;;;24.40;;
25922;SDS011;13725;51.170;4.442;2022-11-20T09:05:58;61.45;;;23.65;;
25922;SDS011;13725;51.170;4.442;2022-11-20T09:08:31;54.70;;;23.13;;
25922;SDS011;13725;51.170;4.442;2022-11-20T09:10:58;61.97;;;23.95;;
25922;SDS011;13725;51.170;4.442;2022-11-20T09:13:25;60.17;;;23.38;;
25922;SDS011;13725;51.170;4.442;2022-11-20T09:15:56;56.75;;;21.92;;
25922;SDS011;13725;51.170;4.442;2022-11-20T09:18:23;63.05;;;23.98;;
25922;SDS011;13725;51.170;4.442;2022-11-20T09:20:55;65.15;;;23.23;;
25922;SDS011;13725;51.170;4.442;2022-11-20T09:23:22;67.95;;;24.65;;
25922;SDS011;13725;51.170;4.442;2022-11-20T09:25:48;69.93;;;24.80;;
25922;SDS011;13725;51.170;4.442;2022-11-20T09:28:13;64.00;;;23.25;;
25922;SDS011;13725;51.170;4.442;2022-11-20T09:30:39;67.35;;;24.63;;
25922;SDS011;13725;51.170;4.442;2022-11-20T09:33:05;61.83;;;24.30;;
25922;SDS011;13725;51.170;4.442;2022-11-20T09:35:31;65.97;;;24.88;;
25922;SDS011;13725;51.170;4.442;2022-11-20T09:37:58;67.65;;;24.15;;
25922;SDS011;13725;51.170;4.442;2022-11-20T09:40:24;66.78;;;24.33;;
25922;SDS011;13725;51.170;4.442;2022-11-20T09:48:15;64.90;;;23.98;;
25922;SDS011;13725;51.170;4.442;2022-11-20T09:56:22;73.03;;;25.92;;
25922;SDS011;13725;51.170;4.442;2022-11-20T09:58:51;72.25;;;25.05;;
25922;SDS011;13725;51.170;4.442;2022-11-20T10:01:30;71.05;;;25.27;;
25922;SDS011;13725;51.170;4.442;2022-11-20T10:04:18;83.20;;;26.27;;
25922;SDS011;13725;51.170;4.442;2022-11-20T10:09:37;69.10;;;24.85;;
25922;SDS011;13725;51.170;4.442;2022-11-20T10:23:16;87.18;;;25.80;;
25922;SDS011;13725;51.170;4.442;2022-11-20T10:31:28;96.35;;;27.98;;
25922;SDS011;13725;51.170;4.442;2022-11-20T10:34:04;89.68;;;26.77;;
25922;SDS011;13725;51.170;4.442;2022-11-20T10:36:42;98.53;;;29.17;;
25922;SDS011;13725;51.170;4.442;2022-11-20T10:41:47;99.10;;;27.13;;
25922;SDS011;13725;51.170;4.442;2022-11-20T10:44:36;93.63;;;28.98;;
25922;SDS011;13725;51.170;4.442;2022-11-20T10:47:20;107.57;;;28.25;;
25922;SDS011;13725;51.170;4.442;2022-11-20T10:49:48;101.90;;;28.60;;
25922;SDS011;13725;51.170;4.442;2022-11-20T10:52:33;98.03;;;27.75;;
25922;SDS011;13725;51.170;4.442;2022-11-20T10:58:04;91.82;;;27.33;;
25922;SDS011;13725;51.170;4.442;2022-11-20T11:00:40;94.88;;;27.83;;
25922;SDS011;13725;51.170;4.442;2022-11-20T11:06:36;94.25;;;26.38;;
25922;SDS011;13725;51.170;4.442;2022-11-20T11:08:51;86.88;;;26.13;;
25922;SDS011;13725;51.170;4.442;2022-11-20T11:11:28;79.82;;;25.60;;
25922;SDS011;13725;51.170;4.442;2022-11-20T11:14:05;88.82;;;28.05;;
25922;SDS011;13725;51.170;4.442;2022-11-20T11:16:31;92.82;;;28.23;;
25922;SDS011;13725;51.170;4.442;2022-11-20T11:19:07;85.75;;;27.65;;
25922;SDS011;13725;51.170;4.442;2022-11-20T11:21:37;84.78;;;27.42;;
25922;SDS011;13725;51.170;4.442;2022-11-20T11:24:15;87.05;;;27.27;;
25922;SDS011;13725;51.170;4.442;2022-11-20T11:26:54;87.40;;;24.30;;
25922;SDS011;13725;51.170;4.442;2022-11-20T11:29:25;82.95;;;25.63;;
25922;SDS011;13725;51.170;4.442;2022-11-20T11:32:04;86.72;;;26.67;;
25922;SDS011;13725;51.170;4.442;2022-11-20T11:34:31;86.25;;;26.33;;
25922;SDS011;13725;51.170;4.442;2022-11-20T11:36:57;76.82;;;25.23;;
25922;SDS011;13725;51.170;4.442;2022-11-20T11:39:24;80.93;;;25.50;;
25922;SDS011;13725;51.170;4.442;2022-11-20T11:41:51;74.90;;;24.65;;
25922;SDS011;13725;51.170;4.442;2022-11-20T11:47:04;83.50;;;25.13;;
25922;SDS011;13725;51.170;4.442;2022-11-20T11:49:34;75.57;;;23.83;;
25922;SDS011;13725;51.170;4.442;2022-11-20T11:54:43;74.63;;;24.90;;
25922;SDS011;13725;51.170;4.442;2022-11-20T11:57:29;77.47;;;24.07;;
25922;SDS011;13725;51.170;4.442;2022-11-20T12:00:16;74.03;;;23.92;;
25922;SDS011;13725;51.170;4.442;2022-11-20T12:16:05;60.58;;;20.33;;
25922;SDS011;13725;51.170;4.442;2022-11-20T12:18:36;58.83;;;20.80;;
25922;SDS011;13725;51.170;4.442;2022-11-20T12:26:50;51.60;;;19.13;;
25922;SDS011;13725;51.170;4.442;2022-11-20T12:29:23;49.10;;;18.77;;
25922;SDS011;13725;51.170;4.442;2022-11-20T12:39:49;52.08;;;16.90;;
25922;SDS011;13725;51.170;4.442;2022-11-20T12:51:27;17.10;;;6.00;;
25922;SDS011;13725;51.170;4.442;2022-11-20T12:53:59;15.95;;;5.25;;
25922;SDS011;13725;51.170;4.442;2022-11-20T13:07:05;11.32;;;4.63;;
25922;SDS011;13725;51.170;4.442;2022-11-20T13:09:36;13.95;;;4.82;;
25922;SDS011;13725;51.170;4.442;2022-11-20T13:17:33;10.20;;;4.40;;
25922;SDS011;13725;51.170;4.442;2022-11-20T13:20:19;18.85;;;6.25;;
25922;SDS011;13725;51.170;4.442;2022-11-20T13:22:46;12.43;;;5.88;;
25922;SDS011;13725;51.170;4.442;2022-11-20T13:25:25;13.73;;;4.65;;
25922;SDS011;13725;51.170;4.442;2022-11-20T13:27:51;16.05;;;5.22;;
25922;SDS011;13725;51.170;4.442;2022-11-20T13:30:19;14.13;;;5.07;;
25922;SDS011;13725;51.170;4.442;2022-11-20T13:32:49;15.43;;;6.88;;
25922;SDS011;13725;51.170;4.442;2022-11-20T13:35:25;13.05;;;5.13;;
25922;SDS011;13725;51.170;4.442;2022-11-20T13:37:59;11.00;;;4.90;;
25922;SDS011;13725;51.170;4.442;2022-11-20T13:40:37;12.80;;;5.18;;
25922;SDS011;13725;51.170;4.442;2022-11-20T13:43:57;9.60;;;4.45;;
25922;SDS011;13725;51.170;4.442;2022-11-20T13:46:06;10.68;;;4.50;;
25922;SDS011;13725;51.170;4.442;2022-11-20T13:48:38;14.63;;;4.95;;
25922;SDS011;13725;51.170;4.442;2022-11-20T13:51:48;12.75;;;4.90;;
25922;SDS011;13725;51.170;4.442;2022-11-20T13:59:49;13.23;;;4.82;;
25922;SDS011;13725;51.170;4.442;2022-11-20T14:02:19;12.30;;;4.45;;
25922;SDS011;13725;51.170;4.442;2022-11-20T14:04:51;8.93;;;5.50;;
25922;SDS011;13725;51.170;4.442;2022-11-20T14:07:19;11.18;;;5.40;;
25922;SDS011;13725;51.170;4.442;2022-11-20T14:09:53;14.02;;;5.50;;
25922;SDS011;13725;51.170;4.442;2022-11-20T14:12:27;14.50;;;5.40;;
25922;SDS011;13725;51.170;4.442;2022-11-20T14:14:55;9.75;;;5.07;;
25922;SDS011;13725;51.170;4.442;2022-11-20T14:17:31;11.25;;;5.18;;
25922;SDS011;13725;51.170;4.442;2022-11-20T14:20:06;8.02;;;5.10;;
25922;SDS011;13725;51.170;4.442;2022-11-20T14:22:37;11.95;;;4.93;;
25922;SDS011;13725;51.170;4.442;2022-11-20T14:25:17;8.05;;;4.72;;
25922;SDS011;13725;51.170;4.442;2022-11-20T14:27:48;12.90;;;5.30;;
25922;SDS011;13725;51.170;4.442;2022-11-20T14:30:19;12.90;;;5.43;;
25922;SDS011;13725;51.170;4.442;2022-11-20T14:32:47;7.97;;;4.90;;
25922;SDS011;13725;51.170;4.442;2022-11-20T14:35:27;8.23;;;4.75;;
25922;SDS011;13725;51.170;4.442;2022-11-20T14:37:56;13.13;;;4.63;;
25922;SDS011;13725;51.170;4.442;2022-11-20T14:40:27;7.60;;;4.45;;
25922;SDS011;13725;51.170;4.442;2022-11-20T14:45:22;9.15;;;3.97;;
25922;SDS011;13725;51.170;4.442;2022-11-20T14:47:48;8.57;;;4.20;;
25922;SDS011;13725;51.170;4.442;2022-11-20T14:50:21;7.78;;;4.60;;
25922;SDS011;13725;51.170;4.442;2022-11-20T14:52:50;8.65;;;4.60;;
25922;SDS011;13725;51.170;4.442;2022-11-20T14:55:31;9.60;;;4.43;;
25922;SDS011;13725;51.170;4.442;2022-11-20T14:57:59;12.32;;;4.07;;
25922;SDS011;13725;51.170;4.442;2022-11-20T15:00:31;9.50;;;4.93;;
25922;SDS011;13725;51.170;4.442;2022-11-20T15:02:57;8.32;;;4.28;;
25922;SDS011;13725;51.170;4.442;2022-11-20T15:05:25;8.23;;;5.05;;
25922;SDS011;13725;51.170;4.442;2022-11-20T15:08:10;7.47;;;4.22;;
25922;SDS011;13725;51.170;4.442;2022-11-20T15:10:38;6.55;;;4.93;;
25922;SDS011;13725;51.170;4.442;2022-11-20T15:13:17;9.93;;;4.97;;
25922;SDS011;13725;51.170;4.442;2022-11-20T15:15:56;7.63;;;4.75;;
25922;SDS011;13725;51.170;4.442;2022-11-20T15:18:23;8.10;;;4.85;;
25922;SDS011;13725;51.170;4.442;2022-11-20T15:20:54;9.48;;;4.88;;
25922;SDS011;13725;51.170;4.442;2022-11-20T15:23:22;10.05;;;5.35;;
25922;SDS011;13725;51.170;4.442;2022-11-20T15:25:49;7.80;;;4.68;;
25922;SDS011;13725;51.170;4.442;2022-11-20T15:28:18;8.48;;;5.25;;
25922;SDS011;13725;51.170;4.442;2022-11-20T15:30:45;12.27;;;5.53;;
25922;SDS011;13725;51.170;4.442;2022-11-20T15:33:12;12.88;;;6.30;;
25922;SDS011;13725;51.170;4.442;2022-11-20T15:35:38;8.98;;;5.53;;
25922;SDS011;13725;51.170;4.442;2022-11-20T15:38:04;8.15;;;5.70;;
25922;SDS011;13725;51.170;4.442;2022-11-20T15:40:30;9.18;;;5.72;;
25922;SDS011;13725;51.170;4.442;2022-11-20T15:42:56;9.07;;;5.78;;
25922;SDS011;13725;51.170;4.442;2022-11-20T15:45:28;13.40;;;6.55;;
25922;SDS011;13725;51.170;4.442;2022-11-20T15:47:58;9.95;;;5.78;;
25922;SDS011;13725;51.170;4.442;2022-11-20T15:50:30;10.18;;;6.10;;
25922;SDS011;13725;51.170;4.442;2022-11-20T15:53:04;9.57;;;6.03;;
25922;SDS011;13725;51.170;4.442;2022-11-20T15:55:30;11.13;;;5.82;;
25922;SDS011;13725;51.170;4.442;2022-11-20T15:57:56;12.48;;;6.43;;
25922;SDS011;13725;51.170;4.442;2022-11-20T16:00:22;9.95;;;6.38;;
25922;SDS011;13725;51.170;4.442;2022-11-20T16:02:48;16.23;;;6.47;;
25922;SDS011;13725;51.170;4.442;2022-11-20T16:05:13;13.88;;;6.47;;
25922;SDS011;13725;51.170;4.442;2022-11-20T16:07:41;9.90;;;6.28;;
25922;SDS011;13725;51.170;4.442;2022-11-20T16:10:07;17.20;;;6.63;;
25922;SDS011;13725;51.170;4.442;2022-11-20T16:12:33;13.35;;;6.90;;
25922;SDS011;13725;51.170;4.442;2022-11-20T16:15:17;15.02;;;6.50;;
25922;SDS011;13725;51.170;4.442;2022-11-20T16:18:02;23.08;;;8.15;;
25922;SDS011;13725;51.170;4.442;2022-11-20T16:20:28;18.27;;;7.35;;
25922;SDS011;13725;51.170;4.442;2022-11-20T16:22:54;23.02;;;7.80;;
25922;SDS011;13725;51.170;4.442;2022-11-20T16:25:20;18.33;;;8.15;;
25922;SDS011;13725;51.170;4.442;2022-11-20T16:27:46;32.45;;;8.52;;
25922;SDS011;13725;51.170;4.442;2022-11-20T16:30:11;26.55;;;9.18;;